TLPC/SLU METAR and TAF weather

Enter ICAO airport designator
Station Type Date Time Source
TLPC METAR 2019/09/21 21:00 UTC NOAA

TLPC 212100Z 10009KT 9999 FEW017CB 30/24 Q1011 NOSIG


Station Type Date Time Source
TLPC Decoded METAR 2019/09/21 21:00 UTC NOAA

Vigie, Saint Lucia (TLPC) 14-01N 061-00W 2M
Sep 21, 2019 - 05:00 PM EDT / 2019.09.21 2100 UTC
Wind: from the E (100 degrees) at 10 MPH (9 KT):0
Visibility: greater than 7 mile(s):0
Sky conditions: mostly clear
Weather: Cumulonimbus clouds observed
Temperature: 86 F (30 C)
Heat index: 95.0 F (35.0 C):1
Dew Point: 75 F (24 C)
Relative Humidity: 70%
Pressure (altimeter): 29.85 in. Hg (1011 hPa)
ob: TLPC 212100Z 10009KT 9999 FEW017CB 30/24 Q1011 NOSIG
cycle: 21

Station Type Date Time Source
TLPC TAF 2019/09/21 18:06 UTC NOAA

TAF TAF TLPC 211700Z 2118/2218 11013G25KT 9999 SCT026
TEMPO 2118/2206 SHRA FEW013CB BKN016TCU
BECMG 2206/2218 5000 TSRA SHRA FEW008 SCT012CB BKN014TCU

Example: see airport list